Time;durP1;ratioP1;P1;durP2;ratioP2;P2;SDS_P1;SDS_P2;PMS_P1;PMS_P2;Temp;Humidity;BMP_temperature;BMP_pressure;BME280_temperature;BME280_humidity;BME280_pressure;Samples;Min_cycle;Max_cycle;Signal;HPM_P1;HPM_P2
2021/01/06 00:00:09;;;;;;;9.55;2.38;;;;;;;1.03;84.59;101432.31;5159942;27;20233;-61
2021/01/06 00:02:38;;;;;;;6.72;3.40;;;;;;;1.05;84.67;101431.69;5158496;27;20216;-61
2021/01/06 00:05:06;;;;;;;7.45;3.28;;;;;;;1.05;85.40;101431.69;5159614;27;20537;-61
2021/01/06 00:07:33;;;;;;;6.15;2.72;;;;;;;1.01;84.59;101426.16;5158641;27;20231;-61
2021/01/06 00:10:00;;;;;;;5.33;2.77;;;;;;;1.15;84.03;101424.91;5158789;27;20702;-61
2021/01/06 00:12:26;;;;;;;5.43;2.63;;;;;;;1.16;83.58;101427.59;5157871;27;20542;-63
2021/01/06 00:14:53;;;;;;;5.97;2.53;;;;;;;1.18;83.58;101427.72;5159273;27;20578;-61
2021/01/06 00:17:21;;;;;;;9.45;3.67;;;;;;;1.21;83.30;101428.00;5159710;27;20506;-61
2021/01/06 00:19:47;;;;;;;8.38;3.17;;;;;;;1.24;83.08;101423.19;5157226;27;20345;-61
2021/01/06 00:22:14;;;;;;;9.15;3.70;;;;;;;1.19;83.58;101425.31;5159489;27;20198;-61
2021/01/06 00:24:41;;;;;;;25.87;9.40;;;;;;;1.08;84.11;101423.47;5157430;27;20234;-61
2021/01/06 00:27:08;;;;;;;7.10;3.53;;;;;;;1.06;83.63;101418.22;5159601;27;20771;-61
2021/01/06 00:29:35;;;;;;;4.40;2.63;;;;;;;1.13;83.75;101422.22;5157485;27;20790;-61
2021/01/06 00:32:01;;;;;;;6.03;3.03;;;;;;;1.26;83.46;101420.78;5159180;27;20241;-61
2021/01/06 00:34:29;;;;;;;11.67;3.10;;;;;;;1.06;83.05;101420.78;5157204;27;20320;-61
2021/01/06 00:36:55;;;;;;;39.95;12.40;;;;;;;1.21;83.71;101418.72;5159127;27;20475;-61
2021/01/06 00:39:22;;;;;;;7.85;2.70;;;;;;;1.11;83.23;101413.56;5156661;27;20320;-61
2021/01/06 00:41:49;;;;;;;8.15;3.60;;;;;;;1.11;83.14;101417.72;5159357;27;20233;-61
2021/01/06 00:44:15;;;;;;;8.32;3.95;;;;;;;1.32;83.48;101414.59;5157054;27;20310;-61
2021/01/06 00:46:42;;;;;;;4.57;2.85;;;;;;;1.04;83.52;101411.22;5159462;27;20308;-61
2021/01/06 00:49:09;;;;;;;6.75;3.00;;;;;;;1.07;83.20;101417.47;5157105;27;20320;-61
2021/01/06 00:51:36;;;;;;;6.95;3.25;;;;;;;1.05;83.66;101416.44;5159006;27;20202;-61
2021/01/06 00:54:03;;;;;;;7.43;3.67;;;;;;;1.13;83.09;101417.13;5156821;27;20236;-61
2021/01/06 00:56:30;;;;;;;6.40;3.25;;;;;;;1.13;83.39;101406.09;5159039;27;20218;-62
2021/01/06 00:58:57;;;;;;;7.47;3.28;;;;;;;0.89;83.62;101413.25;5157380;27;20321;-61
2021/01/06 01:01:25;;;;;;;5.47;3.00;;;;;;;1.00;84.76;101406.59;5158815;27;20604;-61
2021/01/06 01:03:52;;;;;;;4.47;2.80;;;;;;;1.04;83.12;101408.69;5156828;27;20230;-61
2021/01/06 01:06:23;;;;;;;8.48;3.78;;;;;;;1.08;83.60;101403.13;5158241;27;20639;-62
2021/01/06 01:08:51;;;;;;;9.07;3.22;;;;;;;1.10;83.10;101401.59;5157055;27;20239;-61
2021/01/06 01:11:18;;;;;;;6.60;3.23;;;;;;;1.12;83.23;101410.25;5158842;27;20588;-61
2021/01/06 01:13:44;;;;;;;4.20;2.37;;;;;;;0.97;83.05;101403.78;5157043;27;20787;-61
2021/01/06 01:16:11;;;;;;;6.38;3.17;;;;;;;1.01;82.98;101393.13;5158277;27;20475;-61
2021/01/06 01:18:37;;;;;;;4.90;2.75;;;;;;;1.07;82.93;101397.13;5135290;27;20246;-61
2021/01/06 01:21:04;;;;;;;13.50;5.00;;;;;;;1.02;83.39;101397.50;5150602;27;20199;-61
2021/01/06 01:23:31;;;;;;;7.40;3.35;;;;;;;1.17;82.88;101388.69;5156842;27;20460;-61
2021/01/06 01:25:58;;;;;;;6.18;3.15;;;;;;;1.32;82.55;101381.53;5158270;27;20309;-61
2021/01/06 01:28:25;;;;;;;6.65;2.95;;;;;;;1.19;82.75;101377.00;5156448;27;20540;-61
2021/01/06 01:30:53;;;;;;;5.87;2.40;;;;;;;1.20;82.35;101372.81;5158308;27;20494;-61
2021/01/06 01:33:21;;;;;;;8.25;4.07;;;;;;;1.25;82.57;101373.22;5156763;27;20482;-61
2021/01/06 01:35:48;;;;;;;21.70;8.15;;;;;;;1.00;83.47;101381.19;5157771;27;20255;-61
2021/01/06 01:38:16;;;;;;;5.78;2.22;;;;;;;1.10;82.75;101370.19;5156325;27;20226;-61
2021/01/06 01:40:43;;;;;;;5.10;2.97;;;;;;;1.10;83.08;101363.47;5158206;27;20289;-61
2021/01/06 01:43:18;;;;;;;7.00;2.80;;;;;;;1.01;83.27;101371.16;5156579;27;20234;-61
2021/01/06 01:46:33;;;;;;;5.80;2.72;;;;;;;1.12;83.21;101369.59;5157346;27;20253;-61
2021/01/06 01:49:03;;;;;;;6.25;2.75;;;;;;;1.26;82.66;101369.91;5135604;27;20321;-61
2021/01/06 01:51:34;;;;;;;7.95;2.58;;;;;;;1.31;82.55;101366.16;5137265;27;20203;-61
2021/01/06 01:54:04;;;;;;;4.85;2.53;;;;;;;1.28;82.03;101360.81;5134995;27;20231;-61
2021/01/06 01:56:37;;;;;;;9.88;3.28;;;;;;;1.16;83.54;101360.59;5136927;27;20214;-61
2021/01/06 01:59:07;;;;;;;3.93;2.47;;;;;;;1.22;82.88;101358.59;5135230;27;20238;-61
2021/01/06 02:01:35;;;;;;;4.80;2.53;;;;;;;1.10;82.64;101354.94;5137093;27;20529;-61
2021/01/06 02:04:08;;;;;;;9.52;3.17;;;;;;;1.02;83.13;101352.63;5134836;27;20478;-61
2021/01/06 02:06:38;;;;;;;14.38;4.75;;;;;;;1.08;83.16;101349.75;5136755;27;20641;-61
2021/01/06 02:09:10;;;;;;;11.73;4.47;;;;;;;1.12;83.29;101349.25;5135710;27;20234;-61
2021/01/06 02:11:39;;;;;;;7.85;3.17;;;;;;;1.27;82.82;101347.19;5157991;27;20540;-61
2021/01/06 02:14:09;;;;;;;8.65;3.00;;;;;;;1.28;82.27;101340.47;5155204;27;20229;-61
2021/01/06 02:16:44;;;;;;;9.25;3.83;;;;;;;1.30;82.37;101344.94;5157167;27;20253;-61
2021/01/06 02:19:11;;;;;;;8.10;3.25;;;;;;;1.20;82.73;101343.22;5156139;27;20277;-61
2021/01/06 02:21:39;;;;;;;7.50;3.03;;;;;;;1.28;82.33;101340.47;5157530;27;20195;-61
2021/01/06 02:24:07;;;;;;;8.77;3.30;;;;;;;1.24;82.32;101339.28;5155561;27;20483;-61
2021/01/06 02:26:33;;;;;;;6.32;3.00;;;;;;;1.14;82.46;101335.03;5157485;27;20306;-61
2021/01/06 02:29:00;;;;;;;7.82;3.05;;;;;;;1.26;82.30;101334.31;5154952;27;20312;-61
2021/01/06 02:31:27;;;;;;;6.80;2.70;;;;;;;1.19;82.39;101336.31;5152532;27;20289;-61
2021/01/06 02:33:53;;;;;;;6.90;3.40;;;;;;;1.15;82.85;101324.13;5155519;27;20235;-61
2021/01/06 02:36:21;;;;;;;10.65;3.40;;;;;;;1.20;82.29;101327.06;5157334;27;20476;-61
2021/01/06 02:38:49;;;;;;;13.27;4.47;;;;;;;1.21;82.54;101328.84;5155503;27;20613;-61
2021/01/06 02:41:16;;;;;;;8.13;2.95;;;;;;;1.06;82.23;101318.19;5157380;27;20600;-61
2021/01/06 02:43:43;;;;;;;5.47;2.67;;;;;;;1.21;82.10;101323.75;5155908;27;20234;-61
2021/01/06 02:46:11;;;;;;;7.30;3.00;;;;;;;1.20;81.63;101327.97;5157257;27;20824;-61
2021/01/06 02:48:39;;;;;;;6.75;2.95;;;;;;;0.97;81.93;101322.47;5155688;27;20233;-61
2021/01/06 02:51:07;;;;;;;11.77;3.03;;;;;;;0.97;81.85;101322.47;5157481;27;20202;-61
2021/01/06 02:53:40;;;;;;;8.50;3.60;;;;;;;1.06;82.61;101320.75;5155627;27;20240;-61
2021/01/06 02:56:07;;;;;;;6.72;2.75;;;;;;;0.98;81.78;101314.09;5157157;27;20565;-61
2021/01/06 02:58:35;;;;;;;7.32;3.65;;;;;;;1.02;82.17;101317.03;5155614;27;20532;-61
2021/01/06 03:01:01;;;;;;;18.33;6.05;;;;;;;1.01;81.93;101319.44;5156725;27;20220;-61
2021/01/06 03:03:32;;;;;;;11.97;3.87;;;;;;;1.01;82.62;101315.25;5155388;27;20576;-61
2021/01/06 03:06:06;;;;;;;7.97;3.33;;;;;;;0.89;82.36;101309.97;5156813;27;20554;-61
2021/01/06 03:08:33;;;;;;;9.80;3.50;;;;;;;0.86;82.49;101304.59;5155445;27;20584;-61
2021/01/06 03:11:01;;;;;;;10.55;3.03;;;;;;;0.83;82.72;101301.81;5159871;27;20201;-61
2021/01/06 03:13:29;;;;;;;12.88;5.45;;;;;;;0.93;81.93;101296.78;5159296;27;20238;-59
2021/01/06 03:15:55;;;;;;;11.83;5.00;;;;;;;0.77;82.63;101298.72;5160623;27;20222;-58
2021/01/06 03:18:22;;;;;;;6.05;2.92;;;;;;;0.71;82.61;101295.63;5158979;27;20911;-59
2021/01/06 03:20:50;;;;;;;9.55;4.95;;;;;;;0.84;82.83;101297.59;5160563;27;20609;-60
2021/01/06 03:23:22;;;;;;;9.50;3.30;;;;;;;0.86;82.04;101294.44;5159089;27;20320;-57
2021/01/06 03:25:49;;;;;;;6.20;2.72;;;;;;;0.87;82.34;101295.34;5160530;27;20253;-58
2021/01/06 03:28:19;;;;;;;9.77;4.38;;;;;;;0.81;82.13;101290.59;5158429;27;20266;-59
2021/01/06 03:30:48;;;;;;;10.48;3.53;;;;;;;0.69;82.54;101281.88;5160781;27;20549;-58
2021/01/06 03:33:21;;;;;;;5.25;2.60;;;;;;;0.96;82.06;101288.53;5158533;27;20233;-59
2021/01/06 03:35:50;;;;;;;16.85;5.15;;;;;;;0.98;82.00;101283.59;5160288;27;20226;-56
2021/01/06 03:38:24;;;;;;;10.23;4.55;;;;;;;0.87;82.62;101278.44;5158229;27;20718;-58
2021/01/06 03:40:53;;;;;;;5.15;3.33;;;;;;;0.84;82.30;101279.81;5160318;27;20614;-60
2021/01/06 03:43:19;;;;;;;9.40;3.65;;;;;;;0.85;82.38;101274.88;5157916;27;20316;-58
2021/01/06 03:45:49;;;;;;;12.18;3.33;;;;;;;0.80;81.87;101278.66;5159938;27;20647;-60
2021/01/06 03:48:19;;;;;;;7.63;3.17;;;;;;;0.83;82.33;101278.94;5140916;27;20253;-59
2021/01/06 03:50:50;;;;;;;8.60;3.53;;;;;;;0.88;82.22;101271.72;5149687;27;20236;-57
2021/01/06 03:53:28;;;;;;;7.00;3.20;;;;;;;0.74;82.36;101262.84;5158102;27;20245;-58
2021/01/06 03:55:57;;;;;;;8.25;3.60;;;;;;;0.83;82.65;101261.16;5159834;27;20221;-55
2021/01/06 03:58:45;;;;;;;5.82;3.72;;;;;;;0.78;82.30;101262.38;5138565;27;20231;-61
2021/01/06 04:01:22;;;;;;;9.35;3.80;;;;;;;0.74;82.41;101255.22;5147400;27;20209;-59
2021/01/06 04:03:55;;;;;;;12.10;4.43;;;;;;;0.73;82.49;101253.47;5158891;27;20553;-59
2021/01/06 04:06:25;;;;;;;7.53;3.90;;;;;;;0.70;82.52;101254.06;5159884;27;20610;-55
2021/01/06 04:08:55;;;;;;;9.70;3.90;;;;;;;0.60;83.16;101247.28;5158329;27;20238;-61
2021/01/06 04:11:24;;;;;;;4.63;2.63;;;;;;;0.66;83.02;101250.38;5159719;27;20607;-61
2021/01/06 04:13:50;;;;;;;12.50;4.10;;;;;;;0.83;82.88;101248.44;5157197;27;20234;-61
2021/01/06 04:16:18;;;;;;;12.25;4.60;;;;;;;0.66;82.69;101250.38;5159226;27;20247;-61
2021/01/06 04:18:45;;;;;;;6.78;3.70;;;;;;;0.66;82.52;101250.38;5154595;27;20320;-61
2021/01/06 04:21:12;;;;;;;8.70;3.88;;;;;;;0.71;82.64;101242.28;5159224;27;20603;-61
2021/01/06 04:23:39;;;;;;;11.35;4.55;;;;;;;0.91;82.34;101236.41;5156598;27;20272;-61
2021/01/06 04:26:06;;;;;;;6.30;3.00;;;;;;;0.87;82.78;101237.78;5159440;27;20221;-61
2021/01/06 04:28:35;;;;;;;10.38;3.72;;;;;;;0.80;82.46;101232.91;5156946;27;20255;-61
2021/01/06 04:31:04;;;;;;;8.00;3.65;;;;;;;0.70;82.48;101227.75;5159084;27;20194;-61
2021/01/06 04:33:33;;;;;;;8.63;3.47;;;;;;;0.81;82.61;101227.06;5157073;27;20321;-61
2021/01/06 04:36:04;;;;;;;7.32;3.90;;;;;;;0.83;82.43;101227.22;5159015;27;20246;-61
2021/01/06 04:38:33;;;;;;;39.58;10.65;;;;;;;0.98;82.24;101223.50;5156183;27;20236;-61
2021/01/06 04:41:02;;;;;;;8.30;3.57;;;;;;;0.87;81.92;101214.91;5159260;27;20514;-62
2021/01/06 04:43:33;;;;;;;12.18;3.08;;;;;;;0.79;82.27;101220.97;5157368;27;20502;-61
2021/01/06 04:46:16;;;;;;;13.60;4.60;;;;;;;0.93;82.77;101218.00;5158860;27;20647;-62
2021/01/06 04:48:55;;;;;;;7.70;3.10;;;;;;;0.87;81.97;101219.13;5156994;27;20673;-61
2021/01/06 04:51:35;;;;;;;6.65;3.65;;;;;;;0.88;81.76;101211.59;5146163;27;20517;-61
2021/01/06 04:54:20;;;;;;;6.53;3.22;;;;;;;0.86;82.36;101215.66;5136172;27;20238;-61
2021/01/06 04:57:00;;;;;;;7.47;3.05;;;;;;;0.89;82.85;101205.78;5137329;27;20534;-61
2021/01/06 04:59:49;;;;;;;11.90;4.38;;;;;;;0.99;82.13;101204.94;5136286;27;20241;-61
2021/01/06 05:02:24;;;;;;;6.60;3.63;;;;;;;0.98;82.19;101207.34;5138273;27;20230;-61
2021/01/06 05:05:21;;;;;;;10.38;4.20;;;;;;;0.97;81.81;101200.50;5137215;27;20610;-61
2021/01/06 05:07:59;;;;;;;8.40;3.75;;;;;;;0.99;82.05;101193.88;5128102;27;20505;-61
2021/01/06 05:10:31;;;;;;;9.60;3.45;;;;;;;0.76;82.61;101200.34;5138140;27;20203;-61
2021/01/06 05:13:00;;;;;;;7.43;3.90;;;;;;;0.73;82.74;101187.41;5136358;27;20515;-61
2021/01/06 05:15:34;;;;;;;6.82;3.58;;;;;;;0.82;82.71;101189.88;5137594;27;20587;-62
2021/01/06 05:18:01;;;;;;;7.70;3.33;;;;;;;0.63;83.00;101194.22;5136107;27;20269;-61
2021/01/06 05:20:28;;;;;;;7.97;3.80;;;;;;;0.65;83.29;101181.63;5137841;27;20203;-61
2021/01/06 05:22:55;;;;;;;11.75;3.47;;;;;;;0.76;82.80;101185.13;5136245;27;20230;-61
2021/01/06 05:25:22;;;;;;;6.93;2.58;;;;;;;0.88;82.67;101181.13;5137548;27;20552;-61
2021/01/06 05:27:50;;;;;;;6.47;3.40;;;;;;;1.02;81.88;101176.38;5135910;27;20226;-62
2021/01/06 05:30:21;;;;;;;6.38;3.35;;;;;;;0.84;82.30;101176.53;5137763;27;20225;-62
2021/01/06 05:32:48;;;;;;;5.25;2.90;;;;;;;0.79;82.87;101175.25;5134571;27;20234;-62
2021/01/06 05:35:17;;;;;;;10.85;4.00;;;;;;;0.87;82.47;101173.38;5137204;27;20241;-61
2021/01/06 05:37:49;;;;;;;7.53;3.58;;;;;;;0.85;82.83;101173.25;5135226;27;20222;-62
2021/01/06 05:40:16;;;;;;;6.55;3.70;;;;;;;0.92;82.03;101157.75;5137267;27;20244;-61
2021/01/06 05:42:49;;;;;;;7.67;3.63;;;;;;;1.13;81.90;101162.91;5135445;27;20203;-62
2021/01/06 05:45:18;;;;;;;8.52;3.80;;;;;;;1.12;81.97;101166.22;5137164;27;20901;-61
2021/01/06 05:47:48;;;;;;;9.90;3.63;;;;;;;1.02;81.92;101159.47;5144531;27;20202;-61
2021/01/06 05:50:18;;;;;;;6.72;3.80;;;;;;;0.80;82.37;101161.78;5158545;27;20451;-61
2021/01/06 05:52:53;;;;;;;5.53;2.97;;;;;;;0.84;82.73;101157.84;5156291;27;20190;-61
2021/01/06 05:55:21;;;;;;;9.23;3.80;;;;;;;0.74;83.25;101161.25;5157919;27;20608;-61
2021/01/06 05:57:54;;;;;;;7.82;3.88;;;;;;;0.85;82.74;101158.00;5156600;27;20499;-61
2021/01/06 06:00:45;;;;;;;11.88;4.35;;;;;;;0.89;82.65;101154.97;5157953;27;20284;-61
2021/01/06 06:03:29;;;;;;;6.63;3.70;;;;;;;0.79;83.37;101157.47;5155472;27;20234;-62
2021/01/06 06:06:02;;;;;;;7.60;3.65;;;;;;;0.86;83.30;101157.22;5157797;27;20309;-61
2021/01/06 06:08:50;;;;;;;9.83;3.87;;;;;;;0.86;83.08;101152.16;5155967;27;20229;-61
2021/01/06 06:11:41;;;;;;;11.07;3.80;;;;;;;0.67;83.23;101150.53;5158474;27;20447;-61
2021/01/06 06:14:27;;;;;;;9.10;4.60;;;;;;;0.82;83.27;101152.63;5155237;27;20543;-61
2021/01/06 06:16:58;;;;;;;9.00;4.50;;;;;;;0.90;83.75;101144.06;5157998;27;20245;-62
2021/01/06 06:19:39;;;;;;;11.63;4.00;;;;;;;0.77;84.30;101154.78;5146375;27;20262;-61
2021/01/06 06:22:15;;;;;;;8.10;4.22;;;;;;;0.82;84.52;101144.13;5157701;27;20244;-61
2021/01/06 06:24:54;;;;;;;10.10;4.28;;;;;;;0.80;84.63;101149.06;5154484;27;20237;-61
2021/01/06 06:27:37;;;;;;;7.03;3.63;;;;;;;0.69;85.02;101142.16;5157736;27;20297;-61
2021/01/06 06:30:19;;;;;;;7.53;3.92;;;;;;;0.71;85.24;101146.63;5157346;27;20308;-61
2021/01/06 06:32:48;;;;;;;9.10;4.53;;;;;;;0.59;86.00;101146.44;5155757;27;20237;-61
2021/01/06 06:35:21;;;;;;;9.98;3.55;;;;;;;0.64;86.16;101145.22;5157368;27;20222;-61
2021/01/06 06:37:50;;;;;;;9.65;4.38;;;;;;;0.74;85.71;101139.28;5155240;27;20606;-61
2021/01/06 06:40:18;;;;;;;11.88;4.13;;;;;;;0.58;86.34;101134.50;5157528;27;20223;-61
2021/01/06 06:42:56;;;;;;;7.60;4.10;;;;;;;0.51;87.09;101137.25;5155547;27;20194;-62
2021/01/06 06:45:46;;;;;;;10.25;4.10;;;;;;;0.58;87.33;101133.59;5160857;27;20236;-61
2021/01/06 06:48:18;;;;;;;10.48;5.18;;;;;;;0.65;86.83;101131.75;5159966;27;20261;-61
2021/01/06 06:50:54;;;;;;;9.23;4.60;;;;;;;0.59;87.23;101131.19;5161677;27;20516;-61
2021/01/06 06:53:31;;;;;;;13.52;5.88;;;;;;;0.55;87.18;101131.69;5159733;27;20542;-61
2021/01/06 06:56:08;;;;;;;7.50;4.32;;;;;;;0.51;87.47;101127.97;5161420;27;20598;-61
2021/01/06 06:58:44;;;;;;;9.15;5.00;;;;;;;0.34;88.04;101125.59;5148941;27;20238;-61
2021/01/06 07:01:13;;;;;;;24.70;5.50;;;;;;;0.20;88.59;101124.38;5161020;27;20212;-61
2021/01/06 07:03:44;;;;;;;9.88;4.78;;;;;;;0.35;88.64;101135.88;5159412;27;20230;-61
2021/01/06 07:06:12;;;;;;;7.40;4.53;;;;;;;0.29;88.67;101124.31;5161045;27;20703;-61
2021/01/06 07:08:47;;;;;;;11.48;4.78;;;;;;;0.21;88.89;101127.03;5152106;27;20325;-61
2021/01/06 07:11:25;;;;;;;9.82;4.65;;;;;;;0.36;88.95;101119.91;5161473;27;20201;-61
2021/01/06 07:13:56;;;;;;;12.63;5.28;;;;;;;0.21;88.84;101126.16;5159417;27;20237;-61
2021/01/06 07:16:30;;;;;;;10.18;5.07;;;;;;;0.17;89.07;101124.09;5160747;27;20221;-61
2021/01/06 07:19:12;;;;;;;8.55;5.15;;;;;;;0.25;88.85;101129.09;5158991;27;20280;-61
2021/01/06 07:21:40;;;;;;;9.85;4.53;;;;;;;0.16;88.99;101125.75;5160994;27;20208;-61
2021/01/06 07:24:12;;;;;;;8.38;4.45;;;;;;;0.14;89.52;101124.72;5158858;27;20246;-61
2021/01/06 07:26:43;;;;;;;13.43;5.30;;;;;;;0.20;89.22;101120.19;5160365;27;20669;-61
2021/01/06 07:29:12;;;;;;;10.60;4.70;;;;;;;0.16;89.40;101117.25;5159212;27;20275;-61
2021/01/06 07:31:51;;;;;;;10.55;5.15;;;;;;;0.25;89.26;101125.66;5161186;27;20297;-61
2021/01/06 07:34:20;;;;;;;10.40;5.10;;;;;;;0.06;89.34;101116.41;5158445;27;20268;-61
2021/01/06 07:36:48;;;;;;;8.38;4.07;;;;;;;0.19;89.49;101122.56;5160414;27;20305;-61
2021/01/06 07:39:20;;;;;;;12.13;5.20;;;;;;;0.06;89.69;101121.47;5158626;27;20236;-61
2021/01/06 07:41:48;;;;;;;10.95;5.15;;;;;;;0.07;89.64;101120.75;5160734;27;20204;-61
2021/01/06 07:44:22;;;;;;;10.40;5.53;;;;;;;0.17;90.45;101119.91;5158564;27;20242;-61
2021/01/06 07:46:56;;;;;;;9.52;4.40;;;;;;;0.24;89.89;101117.16;5160544;27;20223;-61
2021/01/06 07:49:48;;;;;;;9.65;4.78;;;;;;;0.27;90.33;101121.63;5158534;27;20258;-61
2021/01/06 07:52:23;;;;;;;9.27;4.45;;;;;;;0.33;90.38;101119.63;5160023;27;20205;-60
2021/01/06 07:54:53;;;;;;;8.75;4.68;;;;;;;0.28;90.49;101123.41;5158004;27;20234;-61
2021/01/06 07:57:23;;;;;;;8.98;4.45;;;;;;;0.16;90.10;101114.69;5159886;27;20292;-61
2021/01/06 07:59:52;;;;;;;9.80;3.85;;;;;;;0.19;90.17;101127.66;5158052;27;20234;-61
2021/01/06 08:02:25;;;;;;;9.82;5.07;;;;;;;0.18;90.24;101118.25;5160268;27;20200;-61
2021/01/06 08:05:14;;;;;;;12.82;4.90;;;;;;;0.30;90.40;101121.88;5159401;27;20690;-61
2021/01/06 08:07:41;;;;;;;10.00;5.50;;;;;;;0.30;89.47;101119.34;5158558;27;20194;-61
2021/01/06 08:10:15;;;;;;;9.88;4.38;;;;;;;0.20;89.94;101115.09;5159941;27;20289;-61
2021/01/06 08:12:43;;;;;;;8.80;4.95;;;;;;;0.16;90.42;101114.69;5158483;27;20221;-61
2021/01/06 08:15:20;;;;;;;10.27;5.10;;;;;;;0.19;90.14;101113.31;5159140;27;20303;-61
2021/01/06 08:17:51;;;;;;;8.02;4.30;;;;;;;0.06;90.55;101111.31;5158364;27;20336;-61
2021/01/06 08:20:21;;;;;;;9.98;4.95;;;;;;;0.06;90.00;101116.41;5160063;27;20197;-61
2021/01/06 08:23:00;;;;;;;7.35;4.13;;;;;;;0.23;89.90;101109.41;5157767;27;20238;-61
2021/01/06 08:25:29;;;;;;;9.80;5.20;;;;;;;0.14;89.65;101104.41;5138865;27;20214;-61
2021/01/06 08:27:56;;;;;;;9.45;4.85;;;;;;;0.21;89.51;101105.84;5137364;27;20310;-61
2021/01/06 08:30:25;;;;;;;9.27;5.30;;;;;;;0.24;89.76;101101.03;5139054;27;20293;-61
2021/01/06 08:33:03;;;;;;;13.02;5.07;;;;;;;0.18;89.41;101098.84;5136815;27;20226;-61
2021/01/06 08:35:32;;;;;;;9.15;5.20;;;;;;;0.06;89.74;101096.09;5138472;27;20253;-61
2021/01/06 08:37:59;;;;;;;17.92;5.88;;;;;;;-0.18;90.71;101090.63;5137096;27;20340;-61
2021/01/06 08:40:30;;;;;;;12.57;6.20;;;;;;;-0.26;91.09;101086.47;5138559;27;20198;-61
2021/01/06 08:43:01;;;;;;;11.50;5.57;;;;;;;-0.17;91.29;101087.34;5137014;27;20230;-61
2021/01/06 08:45:31;;;;;;;12.98;5.22;;;;;;;-0.19;91.11;101081.25;5138279;27;20219;-61
2021/01/06 08:48:13;;;;;;;10.18;5.47;;;;;;;-0.17;91.16;101087.34;5136494;27;20234;-61
2021/01/06 08:50:43;;;;;;;11.40;5.50;;;;;;;-0.12;90.75;101086.88;5138453;27;20568;-61
2021/01/06 08:53:10;;;;;;;14.02;5.32;;;;;;;-0.23;91.11;101085.88;5136682;27;20227;-61
2021/01/06 08:55:39;;;;;;;10.82;5.43;;;;;;;0.02;90.63;101088.97;5138067;27;20309;-61
2021/01/06 08:58:08;;;;;;;8.68;4.88;;;;;;;-0.04;90.32;101085.91;5136477;27;20227;-61
2021/01/06 09:00:37;;;;;;;9.98;4.90;;;;;;;-0.10;90.67;101086.22;5138141;27;20271;-61
2021/01/06 09:03:18;;;;;;;11.13;5.55;;;;;;;-0.09;90.47;101084.59;5136533;27;20242;-61
2021/01/06 09:06:02;;;;;;;14.00;6.50;;;;;;;0.01;90.15;101083.75;5137824;27;20666;-61
2021/01/06 09:08:33;;;;;;;11.50;5.45;;;;;;;-0.09;90.46;101079.50;5135257;27;20261;-61
2021/01/06 09:11:12;;;;;;;8.50;5.00;;;;;;;-0.07;90.50;101072.91;5138356;27;20269;-61
2021/01/06 09:13:42;;;;;;;9.48;5.03;;;;;;;-0.24;91.27;101077.38;5136814;27;20277;-61
2021/01/06 09:16:14;;;;;;;9.07;4.55;;;;;;;-0.16;91.76;101068.81;5137918;27;20310;-61
2021/01/06 09:18:44;;;;;;;12.50;5.80;;;;;;;-0.16;91.50;101068.81;5136146;27;20313;-61
2021/01/06 09:21:16;;;;;;;9.55;5.10;;;;;;;0.01;90.97;101071.97;5137660;27;20505;-61
2021/01/06 09:23:44;;;;;;;11.90;5.90;;;;;;;-0.09;91.17;101065.19;5136309;27;20240;-61
2021/01/06 09:26:14;;;;;;;12.40;6.10;;;;;;;-0.11;91.29;101060.75;5137723;27;20309;-61
2021/01/06 09:28:43;;;;;;;9.32;5.18;;;;;;;-0.16;91.22;101063.75;5136428;27;20279;-61
2021/01/06 09:31:12;;;;;;;10.80;5.22;;;;;;;-0.24;91.77;101059.63;5137857;27;20285;-61
2021/01/06 09:33:39;;;;;;;9.57;4.40;;;;;;;-0.17;91.39;101058.53;5135751;27;20273;-61
2021/01/06 09:36:07;;;;;;;9.48;4.47;;;;;;;-0.20;91.41;101054.06;5137536;27;20309;-61
2021/01/06 09:38:35;;;;;;;12.85;5.88;;;;;;;-0.14;91.90;101052.06;5135653;27;20234;-61
2021/01/06 09:41:06;;;;;;;10.40;5.47;;;;;;;0.06;91.59;101044.47;5137878;27;20297;-61
2021/01/06 09:43:36;;;;;;;11.48;5.45;;;;;;;0.46;91.46;101047.09;5136102;27;20245;-61
2021/01/06 09:46:14;;;;;;;11.45;5.03;;;;;;;0.36;90.87;101048.81;5137168;27;20223;-61
2021/01/06 09:48:43;;;;;;;10.05;5.55;;;;;;;0.37;90.07;101040.44;5153422;27;20238;-61
2021/01/06 09:51:10;;;;;;;9.00;4.97;;;;;;;0.31;90.34;101047.50;5157968;27;20595;-61
2021/01/06 09:53:37;;;;;;;11.75;5.68;;;;;;;0.28;89.95;101036.19;5156618;27;20234;-61
2021/01/06 09:56:04;;;;;;;12.50;6.03;;;;;;;0.58;89.75;101035.47;5157736;27;20305;-61
2021/01/06 09:58:33;;;;;;;8.95;5.40;;;;;;;0.43;89.16;101035.00;5156191;27;20237;-61
2021/01/06 10:01:11;;;;;;;9.68;5.50;;;;;;;0.48;89.36;101041.41;5157756;27;20202;-61
2021/01/06 10:03:40;;;;;;;9.90;5.10;;;;;;;0.36;89.29;101038.66;5154026;27;20700;-61
2021/01/06 10:06:25;;;;;;;9.55;5.47;;;;;;;0.31;89.40;101029.75;5157566;27;20600;-61
2021/01/06 10:08:58;;;;;;;14.13;6.72;;;;;;;0.27;90.35;101035.31;5145235;27;20241;-61
2021/01/06 10:11:46;;;;;;;9.75;5.80;;;;;;;0.20;90.36;101033.88;5157721;27;20236;-61
2021/01/06 10:14:21;;;;;;;9.70;5.40;;;;;;;0.28;90.08;101026.94;5155946;27;20757;-61
2021/01/06 10:16:53;;;;;;;10.93;5.30;;;;;;;0.09;90.34;101027.88;5157795;27;20260;-61
2021/01/06 10:19:33;;;;;;;14.75;5.70;;;;;;;0.15;90.24;101012.28;5157604;27;20261;-61
2021/01/06 10:22:15;;;;;;;12.23;5.65;;;;;;;-0.03;91.19;101014.09;5161835;27;20602;-61
2021/01/06 10:25:07;;;;;;;9.25;5.00;;;;;;;0.01;91.01;101008.56;5159537;27;20324;-61
2021/01/06 10:27:36;;;;;;;10.40;5.28;;;;;;;0.00;91.07;101004.25;5160037;27;20599;-61
2021/01/06 10:30:10;;;;;;;12.55;5.55;;;;;;;-0.02;91.00;101005.72;5161802;27;20256;-61
2021/01/06 10:32:49;;;;;;;9.18;5.20;;;;;;;-0.01;90.90;100999.88;5160101;27;20299;-61
2021/01/06 10:35:37;;;;;;;11.77;5.30;;;;;;;0.04;91.11;100996.13;5161546;27;20221;-61
2021/01/06 10:38:22;;;;;;;8.90;4.70;;;;;;;0.08;91.56;100993.09;5160023;27;20325;-61
2021/01/06 10:40:50;;;;;;;8.02;4.70;;;;;;;0.01;91.13;100984.81;5161745;27;20215;-61
2021/01/06 10:43:44;;;;;;;7.93;4.22;;;;;;;0.12;91.11;100984.09;5159935;27;20234;-61
2021/01/06 10:46:37;;;;;;;8.35;4.50;;;;;;;0.03;91.30;100984.19;5161498;27;20267;-61
2021/01/06 10:49:07;;;;;;;15.10;6.47;;;;;;;0.27;90.84;100984.56;5159943;27;20308;-61
2021/01/06 10:52:02;;;;;;;9.23;4.45;;;;;;;0.10;91.03;100978.91;5161570;27;20202;-61
2021/01/06 10:54:33;;;;;;;11.23;5.35;;;;;;;0.10;91.15;100973.81;5159275;27;20241;-61
2021/01/06 10:57:09;;;;;;;7.15;4.63;;;;;;;-0.02;91.36;100967.66;5161282;27;20222;-61
2021/01/06 10:59:35;;;;;;;6.60;4.03;;;;;;;0.01;91.70;100970.50;5159476;27;20240;-61
2021/01/06 11:02:18;;;;;;;6.75;3.92;;;;;;;-0.01;91.64;100964.38;5161374;27;20285;-61
2021/01/06 11:04:59;;;;;;;10.90;4.40;;;;;;;0.04;91.26;100957.19;5159268;27;20317;-61
2021/01/06 11:07:37;;;;;;;9.60;4.03;;;;;;;0.22;91.14;100953.72;5160064;27;20265;-64
2021/01/06 11:10:16;;;;;;;7.30;3.72;;;;;;;0.12;90.76;100946.91;5161196;27;20257;-61
2021/01/06 11:13:11;;;;;;;5.22;3.30;;;;;;;0.08;91.33;100944.88;5159587;27;20229;-61
2021/01/06 11:15:54;;;;;;;11.80;4.25;;;;;;;0.14;91.20;100941.97;5152503;27;20233;-61
2021/01/06 11:18:40;;;;;;;6.68;3.55;;;;;;;0.13;91.51;100936.03;5159301;27;20261;-61
2021/01/06 11:21:10;;;;;;;6.20;3.63;;;;;;;0.10;91.42;100940.81;5161069;27;20244;-61
2021/01/06 11:23:56;;;;;;;7.22;3.60;;;;;;;0.10;91.15;100929.81;5159084;27;20816;-61
2021/01/06 11:26:49;;;;;;;6.80;3.00;;;;;;;0.03;91.39;100928.38;5161188;27;20218;-61
2021/01/06 11:29:23;;;;;;;9.02;3.88;;;;;;;0.17;90.94;100928.66;5158382;27;20532;-62
2021/01/06 11:32:32;;;;;;;9.65;4.07;;;;;;;0.15;91.06;100918.38;5159299;27;20305;-61
2021/01/06 11:35:17;;;;;;;5.82;3.53;;;;;;;0.10;91.22;100915.44;5160166;27;20524;-61
2021/01/06 11:37:45;;;;;;;7.28;3.55;;;;;;;0.15;90.98;100912.44;5158802;27;20288;-62
2021/01/06 11:40:16;;;;;;;8.82;3.38;;;;;;;0.21;91.06;100912.97;5160536;27;20260;-61
2021/01/06 11:42:49;;;;;;;6.25;3.58;;;;;;;0.10;90.96;100904.44;5159021;27;20240;-62
2021/01/06 11:45:21;;;;;;;5.57;2.92;;;;;;;0.23;90.58;100897.09;5160434;27;20562;-61
2021/01/06 11:47:49;;;;;;;7.63;3.50;;;;;;;0.08;91.07;100906.81;5158801;27;20225;-62
2021/01/06 11:50:43;;;;;;;7.85;3.80;;;;;;;0.11;90.75;100893.50;5160110;27;20289;-61
2021/01/06 11:53:16;;;;;;;5.63;3.33;;;;;;;0.08;90.79;100890.69;5110793;27;20314;-61